University Park, PA

10:07 PM EDT on May 22, 2015 (GMT -0400)
Penn Valley | | Change Station
CLOSE
Current Station
Airport
Location: Selinsgrove,
Elevation: 449 ft
Nearby Weather Stations
Active Advisory: Frost Advisory

Elev 449 ft 40.82 °N, 76.86 °W | Updated 14 minutes ago

Clear
Clear
58 °F
Feels Like 58 °F
N
8
Wind Variable Wind from WNW

Today
High -- | Low -- °F
--% Chance of Precip.
Yesterday
High -- | Low -- °F
Precip. -- in
5:48 AM 8:28 PM
Waxing Crescent, 25% visible
Pressure 30.19 in
Visibility 10.0 miles
Clouds Clear
Dew Point 27 °F
Humidity 31%
Rainfall 0.01 in
Snow Depth Not available.
UV 0 out of 12
Pollen 8.90 out of 12
Air Quality Not available.
Flu Activity Sporadic
METAR KSEG 230153Z AUTO 30007KT 10SM CLR 14/M03 A3019 RMK AO2 SLP224 T01441028

More Conditions Fewer Conditions

Pressure 30.19 in
Visibility 10.0 miles
Clouds Clear
Dew Point 27 °F
Humidity 31%
Rainfall 0.01 in
Snow Depth Not available.
UV 0 out of 12
Pollen 8.90 out of 12
Air Quality Not available.
Flu Activity Sporadic
METAR KSEG 230153Z AUTO 30007KT 10SM CLR 14/M03 A3019 RMK AO2 SLP224 T01441028

More Conditions Fewer Conditions

10-Day Weather Forecast

Almanac

Astronomy

May. 22, 2015 Rise Set
Actual Time
Civil Twilight
Nautical Twilight
Astronomical Twilight
Moon
Length of Visible Light
Length of Day
Tomorrow will be .
, % of the Moon is Illuminated

Today's Extremes

State Highs State Lows

Community

WunderPhotos

Upload Photos

1,823,363 photos uploaded!

WunderBlogs® & News

Nearby

Air Quality

  Air Quality AQ Index Pollutant
Not available.

Snow Depth

Station Depth Elevation

Earthquake Activity

City Distance Mag. Time & Date
Minimum magnitude displayed is 2.5.

Coastal Water Temperatures

Place Temperature

Stations

Nearby Weather Stations

Station Location Temp. Windchill Dew Point Humidity Wind Precip. Elev Updated Type
                   
Frost Advisory
Statement as of 1:05 PM EDT on May 22, 2015

... Frost advisory now in effect from midnight tonight to 8 am EDT
Saturday...

* temperatures... lows around sunrise Saturday will be in the lower
to mid 30s with a widespread frost likely.

* Timing... temperatures will first dip into the mid 30s around or
shortly after midnight... then settle near... or just below
record lows for the date between 5 and 7 am Saturday.

* Impacts... possible damage to sensitive plants.

Precautionary/preparedness actions...

A frost advisory is issued when widespread frost is expected to
develop during the growing season. Those with agricultural or
gardening interests in the advisory area should protect sensitive
plants and crops. Potted plants normally left outdoors should be
covered or brought inside.



Lambert